sensor_id;sensor_type;location;lat;lon;timestamp;P1;durP1;ratioP1;P2;durP2;ratioP2
7160;SDS011;3622;53.576;9.978;2023-07-02T00:01:34;9.40;;;5.40;;
7160;SDS011;3622;53.576;9.978;2023-07-02T00:03:59;18.30;;;5.20;;
7160;SDS011;3622;53.576;9.978;2023-07-02T00:06:25;7.90;;;3.80;;
7160;SDS011;3622;53.576;9.978;2023-07-02T00:08:51;6.40;;;4.23;;
7160;SDS011;3622;53.576;9.978;2023-07-02T00:11:17;9.57;;;4.77;;
7160;SDS011;3622;53.576;9.978;2023-07-02T00:13:43;4.77;;;4.37;;
7160;SDS011;3622;53.576;9.978;2023-07-02T00:16:09;9.50;;;5.00;;
7160;SDS011;3622;53.576;9.978;2023-07-02T00:18:35;11.00;;;4.97;;
7160;SDS011;3622;53.576;9.978;2023-07-02T00:21:01;7.43;;;4.53;;
7160;SDS011;3622;53.576;9.978;2023-07-02T00:23:30;10.50;;;4.80;;
7160;SDS011;3622;53.576;9.978;2023-07-02T00:25:56;8.20;;;5.07;;
7160;SDS011;3622;53.576;9.978;2023-07-02T00:28:22;8.27;;;4.90;;
7160;SDS011;3622;53.576;9.978;2023-07-02T00:30:48;4.40;;;4.10;;
7160;SDS011;3622;53.576;9.978;2023-07-02T00:33:15;5.63;;;4.50;;
7160;SDS011;3622;53.576;9.978;2023-07-02T00:35:41;11.77;;;5.43;;
7160;SDS011;3622;53.576;9.978;2023-07-02T00:38:07;6.40;;;4.50;;
7160;SDS011;3622;53.576;9.978;2023-07-02T00:40:33;10.53;;;4.80;;
7160;SDS011;3622;53.576;9.978;2023-07-02T00:42:59;5.90;;;4.10;;
7160;SDS011;3622;53.576;9.978;2023-07-02T00:45:25;14.73;;;4.57;;
7160;SDS011;3622;53.576;9.978;2023-07-02T00:47:52;8.57;;;5.03;;
7160;SDS011;3622;53.576;9.978;2023-07-02T00:50:20;5.60;;;5.07;;
7160;SDS011;3622;53.576;9.978;2023-07-02T00:52:46;7.07;;;4.43;;
7160;SDS011;3622;53.576;9.978;2023-07-02T00:55:12;5.67;;;4.97;;
7160;SDS011;3622;53.576;9.978;2023-07-02T00:57:38;11.30;;;4.80;;
7160;SDS011;3622;53.576;9.978;2023-07-02T01:00:06;7.47;;;5.10;;
7160;SDS011;3622;53.576;9.978;2023-07-02T01:02:32;7.17;;;4.20;;
7160;SDS011;3622;53.576;9.978;2023-07-02T01:04:58;12.63;;;5.27;;
7160;SDS011;3622;53.576;9.978;2023-07-02T01:07:24;12.70;;;4.53;;
7160;SDS011;3622;53.576;9.978;2023-07-02T01:09:51;8.50;;;4.87;;
7160;SDS011;3622;53.576;9.978;2023-07-02T01:12:17;6.33;;;4.20;;
7160;SDS011;3622;53.576;9.978;2023-07-02T01:14:44;9.47;;;4.93;;
7160;SDS011;3622;53.576;9.978;2023-07-02T01:17:11;11.43;;;4.40;;
7160;SDS011;3622;53.576;9.978;2023-07-02T01:19:50;9.43;;;3.90;;
7160;SDS011;3622;53.576;9.978;2023-07-02T01:22:20;15.47;;;6.73;;
7160;SDS011;3622;53.576;9.978;2023-07-02T01:24:46;8.20;;;4.30;;
7160;SDS011;3622;53.576;9.978;2023-07-02T01:27:13;7.30;;;4.40;;
7160;SDS011;3622;53.576;9.978;2023-07-02T01:29:40;15.30;;;7.00;;
7160;SDS011;3622;53.576;9.978;2023-07-02T01:32:06;6.47;;;4.70;;
7160;SDS011;3622;53.576;9.978;2023-07-02T01:34:33;7.37;;;4.03;;
7160;SDS011;3622;53.576;9.978;2023-07-02T01:36:59;7.87;;;5.53;;
7160;SDS011;3622;53.576;9.978;2023-07-02T01:39:25;8.30;;;4.57;;
7160;SDS011;3622;53.576;9.978;2023-07-02T01:41:52;9.30;;;5.70;;
7160;SDS011;3622;53.576;9.978;2023-07-02T01:44:19;11.77;;;6.43;;
7160;SDS011;3622;53.576;9.978;2023-07-02T01:46:45;12.10;;;7.30;;
7160;SDS011;3622;53.576;9.978;2023-07-02T01:49:14;9.70;;;4.50;;
7160;SDS011;3622;53.576;9.978;2023-07-02T01:51:44;13.20;;;5.63;;
7160;SDS011;3622;53.576;9.978;2023-07-02T01:54:10;13.07;;;8.20;;
7160;SDS011;3622;53.576;9.978;2023-07-02T01:56:36;6.73;;;4.13;;
7160;SDS011;3622;53.576;9.978;2023-07-02T01:59:02;8.33;;;4.70;;
7160;SDS011;3622;53.576;9.978;2023-07-02T02:01:28;8.57;;;5.10;;
7160;SDS011;3622;53.576;9.978;2023-07-02T02:03:54;7.63;;;4.87;;
7160;SDS011;3622;53.576;9.978;2023-07-02T02:06:19;8.83;;;4.30;;
7160;SDS011;3622;53.576;9.978;2023-07-02T02:08:45;7.93;;;4.90;;
7160;SDS011;3622;53.576;9.978;2023-07-02T02:11:11;7.57;;;4.50;;
7160;SDS011;3622;53.576;9.978;2023-07-02T02:13:37;11.57;;;5.27;;
7160;SDS011;3622;53.576;9.978;2023-07-02T02:16:03;6.90;;;4.70;;
7160;SDS011;3622;53.576;9.978;2023-07-02T02:18:29;11.20;;;5.07;;
7160;SDS011;3622;53.576;9.978;2023-07-02T02:20:55;7.23;;;4.87;;
7160;SDS011;3622;53.576;9.978;2023-07-02T02:23:21;10.73;;;5.07;;
7160;SDS011;3622;53.576;9.978;2023-07-02T02:25:47;11.37;;;5.80;;
7160;SDS011;3622;53.576;9.978;2023-07-02T02:28:13;9.00;;;4.73;;
7160;SDS011;3622;53.576;9.978;2023-07-02T02:30:39;11.37;;;4.57;;
7160;SDS011;3622;53.576;9.978;2023-07-02T02:33:05;10.13;;;4.83;;
7160;SDS011;3622;53.576;9.978;2023-07-02T02:35:31;10.87;;;5.00;;
7160;SDS011;3622;53.576;9.978;2023-07-02T02:37:57;11.97;;;5.20;;
7160;SDS011;3622;53.576;9.978;2023-07-02T02:40:23;9.83;;;5.07;;
7160;SDS011;3622;53.576;9.978;2023-07-02T02:42:48;12.00;;;5.20;;
7160;SDS011;3622;53.576;9.978;2023-07-02T02:45:14;12.07;;;5.47;;
7160;SDS011;3622;53.576;9.978;2023-07-02T02:47:40;9.07;;;5.40;;
7160;SDS011;3622;53.576;9.978;2023-07-02T02:50:06;13.30;;;5.10;;
7160;SDS011;3622;53.576;9.978;2023-07-02T02:52:34;12.37;;;5.43;;
7160;SDS011;3622;53.576;9.978;2023-07-02T02:55:00;7.73;;;5.10;;
7160;SDS011;3622;53.576;9.978;2023-07-02T02:57:26;8.57;;;5.10;;
7160;SDS011;3622;53.576;9.978;2023-07-02T02:59:52;14.87;;;5.30;;
7160;SDS011;3622;53.576;9.978;2023-07-02T03:02:18;9.77;;;5.50;;
7160;SDS011;3622;53.576;9.978;2023-07-02T03:04:44;6.90;;;5.00;;
7160;SDS011;3622;53.576;9.978;2023-07-02T03:07:10;12.20;;;5.70;;
7160;SDS011;3622;53.576;9.978;2023-07-02T03:09:36;6.83;;;4.90;;
7160;SDS011;3622;53.576;9.978;2023-07-02T03:12:02;6.67;;;4.70;;
7160;SDS011;3622;53.576;9.978;2023-07-02T03:14:28;11.53;;;5.07;;
7160;SDS011;3622;53.576;9.978;2023-07-02T03:16:54;8.10;;;5.13;;
7160;SDS011;3622;53.576;9.978;2023-07-02T03:19:20;10.77;;;6.03;;
7160;SDS011;3622;53.576;9.978;2023-07-02T03:21:46;10.20;;;5.27;;
7160;SDS011;3622;53.576;9.978;2023-07-02T03:24:12;9.07;;;5.00;;
7160;SDS011;3622;53.576;9.978;2023-07-02T03:26:41;10.67;;;5.00;;
7160;SDS011;3622;53.576;9.978;2023-07-02T03:29:07;7.60;;;4.30;;
7160;SDS011;3622;53.576;9.978;2023-07-02T03:31:33;10.20;;;4.90;;
7160;SDS011;3622;53.576;9.978;2023-07-02T03:34:01;6.87;;;4.90;;
7160;SDS011;3622;53.576;9.978;2023-07-02T03:36:27;7.93;;;4.67;;
7160;SDS011;3622;53.576;9.978;2023-07-02T03:38:53;6.43;;;4.80;;
7160;SDS011;3622;53.576;9.978;2023-07-02T03:41:19;10.63;;;5.40;;
7160;SDS011;3622;53.576;9.978;2023-07-02T03:43:45;5.47;;;4.40;;
7160;SDS011;3622;53.576;9.978;2023-07-02T03:46:12;8.93;;;4.50;;
7160;SDS011;3622;53.576;9.978;2023-07-02T03:48:39;13.27;;;5.07;;
7160;SDS011;3622;53.576;9.978;2023-07-02T03:51:06;12.23;;;4.80;;
7160;SDS011;3622;53.576;9.978;2023-07-02T03:53:32;10.07;;;4.57;;
7160;SDS011;3622;53.576;9.978;2023-07-02T03:55:58;10.13;;;5.20;;
7160;SDS011;3622;53.576;9.978;2023-07-02T03:58:25;12.10;;;4.80;;
7160;SDS011;3622;53.576;9.978;2023-07-02T04:00:51;7.60;;;4.23;;
7160;SDS011;3622;53.576;9.978;2023-07-02T04:03:17;8.70;;;4.70;;
7160;SDS011;3622;53.576;9.978;2023-07-02T04:05:43;23.23;;;4.90;;
7160;SDS011;3622;53.576;9.978;2023-07-02T04:08:10;9.00;;;4.40;;
7160;SDS011;3622;53.576;9.978;2023-07-02T04:10:36;11.00;;;4.90;;
7160;SDS011;3622;53.576;9.978;2023-07-02T04:13:02;16.83;;;5.10;;
7160;SDS011;3622;53.576;9.978;2023-07-02T04:15:28;12.60;;;5.17;;
7160;SDS011;3622;53.576;9.978;2023-07-02T04:17:54;14.90;;;5.13;;
7160;SDS011;3622;53.576;9.978;2023-07-02T04:20:20;13.90;;;4.33;;
7160;SDS011;3622;53.576;9.978;2023-07-02T04:22:46;19.50;;;5.77;;
7160;SDS011;3622;53.576;9.978;2023-07-02T04:25:13;18.53;;;6.93;;
7160;SDS011;3622;53.576;9.978;2023-07-02T04:27:40;24.83;;;11.87;;
7160;SDS011;3622;53.576;9.978;2023-07-02T04:30:06;72.20;;;22.90;;
7160;SDS011;3622;53.576;9.978;2023-07-02T04:32:33;84.27;;;25.47;;
7160;SDS011;3622;53.576;9.978;2023-07-02T04:34:59;137.20;;;31.60;;
7160;SDS011;3622;53.576;9.978;2023-07-02T04:37:25;124.23;;;30.77;;
7160;SDS011;3622;53.576;9.978;2023-07-02T04:39:52;185.90;;;52.13;;
7160;SDS011;3622;53.576;9.978;2023-07-02T04:42:18;178.47;;;49.30;;
7160;SDS011;3622;53.576;9.978;2023-07-02T04:44:44;198.13;;;53.73;;
7160;SDS011;3622;53.576;9.978;2023-07-02T04:47:10;202.87;;;58.93;;
7160;SDS011;3622;53.576;9.978;2023-07-02T04:49:37;225.07;;;63.20;;
7160;SDS011;3622;53.576;9.978;2023-07-02T04:52:03;238.77;;;63.53;;
7160;SDS011;3622;53.576;9.978;2023-07-02T04:54:29;241.90;;;68.03;;
7160;SDS011;3622;53.576;9.978;2023-07-02T04:56:54;224.90;;;66.37;;
7160;SDS011;3622;53.576;9.978;2023-07-02T04:59:21;234.90;;;64.07;;
7160;SDS011;3622;53.576;9.978;2023-07-02T05:01:47;243.50;;;68.97;;
7160;SDS011;3622;53.576;9.978;2023-07-02T05:04:13;233.67;;;66.33;;
7160;SDS011;3622;53.576;9.978;2023-07-02T05:06:39;254.67;;;71.37;;
7160;SDS011;3622;53.576;9.978;2023-07-02T05:09:05;247.43;;;70.20;;
7160;SDS011;3622;53.576;9.978;2023-07-02T05:11:31;259.67;;;71.23;;
7160;SDS011;3622;53.576;9.978;2023-07-02T05:13:57;239.77;;;67.57;;
7160;SDS011;3622;53.576;9.978;2023-07-02T05:16:23;241.37;;;68.13;;
7160;SDS011;3622;53.576;9.978;2023-07-02T05:18:49;263.47;;;76.20;;
7160;SDS011;3622;53.576;9.978;2023-07-02T05:21:17;240.00;;;66.97;;
7160;SDS011;3622;53.576;9.978;2023-07-02T05:23:43;266.47;;;75.37;;
7160;SDS011;3622;53.576;9.978;2023-07-02T05:26:09;271.73;;;75.20;;
7160;SDS011;3622;53.576;9.978;2023-07-02T05:28:35;259.00;;;73.73;;
7160;SDS011;3622;53.576;9.978;2023-07-02T05:31:01;254.33;;;75.10;;
7160;SDS011;3622;53.576;9.978;2023-07-02T05:33:27;264.13;;;76.47;;
7160;SDS011;3622;53.576;9.978;2023-07-02T05:35:53;274.87;;;79.37;;
7160;SDS011;3622;53.576;9.978;2023-07-02T05:38:19;255.40;;;74.63;;
7160;SDS011;3622;53.576;9.978;2023-07-02T05:40:45;262.27;;;78.63;;
7160;SDS011;3622;53.576;9.978;2023-07-02T05:43:11;251.70;;;76.30;;
7160;SDS011;3622;53.576;9.978;2023-07-02T05:45:37;254.20;;;78.93;;
7160;SDS011;3622;53.576;9.978;2023-07-02T05:48:03;255.00;;;79.37;;
7160;SDS011;3622;53.576;9.978;2023-07-02T05:50:29;273.43;;;81.10;;
7160;SDS011;3622;53.576;9.978;2023-07-02T05:52:55;275.07;;;82.07;;
7160;SDS011;3622;53.576;9.978;2023-07-02T05:55:21;276.23;;;83.30;;
7160;SDS011;3622;53.576;9.978;2023-07-02T05:57:47;258.83;;;81.37;;
7160;SDS011;3622;53.576;9.978;2023-07-02T06:00:13;266.83;;;80.83;;
7160;SDS011;3622;53.576;9.978;2023-07-02T06:02:39;259.70;;;83.77;;
7160;SDS011;3622;53.576;9.978;2023-07-02T06:05:05;270.37;;;87.67;;
7160;SDS011;3622;53.576;9.978;2023-07-02T06:07:31;280.67;;;86.57;;
7160;SDS011;3622;53.576;9.978;2023-07-02T06:09:57;275.83;;;91.43;;
7160;SDS011;3622;53.576;9.978;2023-07-02T06:12:23;284.10;;;91.37;;
7160;SDS011;3622;53.576;9.978;2023-07-02T06:14:49;276.57;;;88.80;;
7160;SDS011;3622;53.576;9.978;2023-07-02T06:17:15;281.27;;;91.00;;
7160;SDS011;3622;53.576;9.978;2023-07-02T06:19:41;293.70;;;94.57;;
7160;SDS011;3622;53.576;9.978;2023-07-02T06:22:07;295.03;;;95.40;;
7160;SDS011;3622;53.576;9.978;2023-07-02T06:24:33;317.37;;;104.47;;
7160;SDS011;3622;53.576;9.978;2023-07-02T06:26:59;276.73;;;89.57;;
7160;SDS011;3622;53.576;9.978;2023-07-02T06:29:25;277.83;;;92.67;;
7160;SDS011;3622;53.576;9.978;2023-07-02T06:31:53;271.27;;;88.50;;
7160;SDS011;3622;53.576;9.978;2023-07-02T06:34:19;275.43;;;92.60;;
7160;SDS011;3622;53.576;9.978;2023-07-02T06:36:45;272.40;;;89.97;;
7160;SDS011;3622;53.576;9.978;2023-07-02T06:39:11;283.43;;;92.17;;
7160;SDS011;3622;53.576;9.978;2023-07-02T06:41:37;281.37;;;90.90;;
7160;SDS011;3622;53.576;9.978;2023-07-02T06:44:03;269.87;;;88.33;;
7160;SDS011;3622;53.576;9.978;2023-07-02T06:46:29;272.50;;;90.80;;
7160;SDS011;3622;53.576;9.978;2023-07-02T06:48:55;263.40;;;88.70;;
7160;SDS011;3622;53.576;9.978;2023-07-02T06:51:21;277.27;;;92.73;;
7160;SDS011;3622;53.576;9.978;2023-07-02T06:53:47;260.60;;;85.83;;
7160;SDS011;3622;53.576;9.978;2023-07-02T06:56:13;292.17;;;95.27;;
7160;SDS011;3622;53.576;9.978;2023-07-02T06:58:42;282.70;;;95.27;;
7160;SDS011;3622;53.576;9.978;2023-07-02T07:01:08;253.97;;;86.83;;
7160;SDS011;3622;53.576;9.978;2023-07-02T07:03:34;222.93;;;81.33;;
7160;SDS011;3622;53.576;9.978;2023-07-02T07:06:01;116.30;;;41.97;;
7160;SDS011;3622;53.576;9.978;2023-07-02T07:08:27;59.53;;;28.20;;
7160;SDS011;3622;53.576;9.978;2023-07-02T07:10:53;47.27;;;18.43;;
7160;SDS011;3622;53.576;9.978;2023-07-02T07:13:19;54.80;;;25.13;;
7160;SDS011;3622;53.576;9.978;2023-07-02T07:15:45;45.17;;;14.40;;
7160;SDS011;3622;53.576;9.978;2023-07-02T07:18:11;29.60;;;9.27;;
7160;SDS011;3622;53.576;9.978;2023-07-02T07:20:38;26.10;;;7.87;;
7160;SDS011;3622;53.576;9.978;2023-07-02T07:23:05;25.40;;;8.00;;
7160;SDS011;3622;53.576;9.978;2023-07-02T07:25:31;39.60;;;9.13;;
7160;SDS011;3622;53.576;9.978;2023-07-02T07:27:58;21.40;;;7.37;;
7160;SDS011;3622;53.576;9.978;2023-07-02T07:30:24;21.63;;;7.23;;
7160;SDS011;3622;53.576;9.978;2023-07-02T07:32:51;23.40;;;7.00;;
7160;SDS011;3622;53.576;9.978;2023-07-02T07:35:17;27.60;;;6.80;;
7160;SDS011;3622;53.576;9.978;2023-07-02T07:37:44;17.00;;;6.30;;
7160;SDS011;3622;53.576;9.978;2023-07-02T07:40:10;21.73;;;8.23;;
7160;SDS011;3622;53.576;9.978;2023-07-02T07:42:36;15.77;;;6.53;;
7160;SDS011;3622;53.576;9.978;2023-07-02T07:45:02;24.20;;;7.80;;
7160;SDS011;3622;53.576;9.978;2023-07-02T07:47:28;13.97;;;5.80;;
7160;SDS011;3622;53.576;9.978;2023-07-02T07:49:54;26.00;;;6.30;;
7160;SDS011;3622;53.576;9.978;2023-07-02T07:52:21;21.90;;;6.73;;
7160;SDS011;3622;53.576;9.978;2023-07-02T07:54:47;17.33;;;6.83;;
7160;SDS011;3622;53.576;9.978;2023-07-02T07:57:13;19.30;;;7.30;;
7160;SDS011;3622;53.576;9.978;2023-07-02T07:59:39;52.07;;;21.53;;
7160;SDS011;3622;53.576;9.978;2023-07-02T08:02:05;153.03;;;39.27;;
7160;SDS011;3622;53.576;9.978;2023-07-02T08:04:31;186.50;;;58.50;;
7160;SDS011;3622;53.576;9.978;2023-07-02T08:06:57;203.97;;;68.07;;
7160;SDS011;3622;53.576;9.978;2023-07-02T08:09:23;265.97;;;83.47;;
7160;SDS011;3622;53.576;9.978;2023-07-02T08:11:50;267.63;;;83.87;;
7160;SDS011;3622;53.576;9.978;2023-07-02T08:14:16;255.90;;;82.83;;
7160;SDS011;3622;53.576;9.978;2023-07-02T08:16:45;247.23;;;82.50;;
7160;SDS011;3622;53.576;9.978;2023-07-02T08:19:11;199.97;;;69.23;;
7160;SDS011;3622;53.576;9.978;2023-07-02T08:21:37;125.63;;;44.43;;
7160;SDS011;3622;53.576;9.978;2023-07-02T08:24:03;31.80;;;14.73;;
7160;SDS011;3622;53.576;9.978;2023-07-02T08:26:29;30.47;;;12.23;;
7160;SDS011;3622;53.576;9.978;2023-07-02T08:28:56;20.77;;;6.53;;
7160;SDS011;3622;53.576;9.978;2023-07-02T08:31:22;16.83;;;6.00;;
7160;SDS011;3622;53.576;9.978;2023-07-02T08:33:47;22.90;;;6.43;;
7160;SDS011;3622;53.576;9.978;2023-07-02T08:36:13;13.67;;;5.60;;
7160;SDS011;3622;53.576;9.978;2023-07-02T08:38:39;16.50;;;5.80;;
7160;SDS011;3622;53.576;9.978;2023-07-02T08:41:08;14.50;;;5.10;;
7160;SDS011;3622;53.576;9.978;2023-07-02T08:43:34;17.80;;;5.83;;
7160;SDS011;3622;53.576;9.978;2023-07-02T08:46:01;24.23;;;7.07;;
7160;SDS011;3622;53.576;9.978;2023-07-02T08:48:27;20.13;;;5.90;;
7160;SDS011;3622;53.576;9.978;2023-07-02T08:50:54;27.90;;;9.57;;
7160;SDS011;3622;53.576;9.978;2023-07-02T08:53:20;48.83;;;20.80;;
7160;SDS011;3622;53.576;9.978;2023-07-02T08:55:54;89.13;;;35.53;;
7160;SDS011;3622;53.576;9.978;2023-07-02T08:58:20;112.03;;;40.63;;
7160;SDS011;3622;53.576;9.978;2023-07-02T09:01:03;142.30;;;59.60;;
7160;SDS011;3622;53.576;9.978;2023-07-02T09:03:29;154.50;;;59.10;;
7160;SDS011;3622;53.576;9.978;2023-07-02T09:05:55;155.97;;;45.17;;
7160;SDS011;3622;53.576;9.978;2023-07-02T09:08:24;89.33;;;38.67;;
7160;SDS011;3622;53.576;9.978;2023-07-02T09:10:50;71.33;;;32.83;;
7160;SDS011;3622;53.576;9.978;2023-07-02T09:13:16;35.63;;;17.83;;
7160;SDS011;3622;53.576;9.978;2023-07-02T09:15:42;18.57;;;7.67;;
7160;SDS011;3622;53.576;9.978;2023-07-02T09:18:15;14.93;;;5.63;;
7160;SDS011;3622;53.576;9.978;2023-07-02T09:20:41;19.37;;;5.30;;
7160;SDS011;3622;53.576;9.978;2023-07-02T09:23:07;15.27;;;5.73;;
7160;SDS011;3622;53.576;9.978;2023-07-02T09:25:34;13.67;;;5.53;;
7160;SDS011;3622;53.576;9.978;2023-07-02T09:28:00;11.53;;;4.93;;
7160;SDS011;3622;53.576;9.978;2023-07-02T09:30:26;10.90;;;5.30;;
7160;SDS011;3622;53.576;9.978;2023-07-02T09:32:52;20.53;;;10.37;;
7160;SDS011;3622;53.576;9.978;2023-07-02T09:35:19;12.20;;;5.53;;
7160;SDS011;3622;53.576;9.978;2023-07-02T09:37:45;24.90;;;5.50;;
7160;SDS011;3622;53.576;9.978;2023-07-02T09:40:11;15.37;;;5.57;;
7160;SDS011;3622;53.576;9.978;2023-07-02T09:42:38;23.80;;;5.97;;
7160;SDS011;3622;53.576;9.978;2023-07-02T09:45:06;11.80;;;4.93;;
7160;SDS011;3622;53.576;9.978;2023-07-02T09:47:33;21.90;;;5.00;;
7160;SDS011;3622;53.576;9.978;2023-07-02T09:50:04;14.73;;;5.40;;
7160;SDS011;3622;53.576;9.978;2023-07-02T09:52:30;14.47;;;5.07;;
7160;SDS011;3622;53.576;9.978;2023-07-02T09:54:58;24.70;;;6.20;;
7160;SDS011;3622;53.576;9.978;2023-07-02T09:57:23;23.67;;;6.80;;
7160;SDS011;3622;53.576;9.978;2023-07-02T09:59:49;34.07;;;10.63;;
7160;SDS011;3622;53.576;9.978;2023-07-02T10:02:15;35.90;;;11.80;;
7160;SDS011;3622;53.576;9.978;2023-07-02T10:04:45;25.87;;;11.20;;
7160;SDS011;3622;53.576;9.978;2023-07-02T10:07:12;57.17;;;23.97;;
7160;SDS011;3622;53.576;9.978;2023-07-02T10:12:23;104.00;;;40.63;;
7160;SDS011;3622;53.576;9.978;2023-07-02T10:14:50;46.17;;;24.17;;
7160;SDS011;3622;53.576;9.978;2023-07-02T10:17:30;39.10;;;20.70;;
7160;SDS011;3622;53.576;9.978;2023-07-02T10:19:57;46.93;;;22.97;;
7160;SDS011;3622;53.576;9.978;2023-07-02T10:22:24;51.63;;;22.90;;
7160;SDS011;3622;53.576;9.978;2023-07-02T10:24:59;32.87;;;13.70;;
7160;SDS011;3622;53.576;9.978;2023-07-02T10:27:35;21.27;;;8.53;;
7160;SDS011;3622;53.576;9.978;2023-07-02T10:30:02;27.67;;;6.93;;
7160;SDS011;3622;53.576;9.978;2023-07-02T10:32:29;17.70;;;4.50;;
7160;SDS011;3622;53.576;9.978;2023-07-02T10:34:56;22.97;;;5.73;;
7160;SDS011;3622;53.576;9.978;2023-07-02T10:37:23;15.00;;;4.80;;
7160;SDS011;3622;53.576;9.978;2023-07-02T10:39:49;10.70;;;4.30;;
7160;SDS011;3622;53.576;9.978;2023-07-02T10:42:17;13.33;;;5.40;;
7160;SDS011;3622;53.576;9.978;2023-07-02T10:44:47;11.70;;;4.87;;
7160;SDS011;3622;53.576;9.978;2023-07-02T10:47:13;20.63;;;4.63;;
7160;SDS011;3622;53.576;9.978;2023-07-02T10:49:39;12.17;;;5.00;;
7160;SDS011;3622;53.576;9.978;2023-07-02T10:52:05;11.40;;;4.40;;
7160;SDS011;3622;53.576;9.978;2023-07-02T10:54:38;9.47;;;4.43;;
7160;SDS011;3622;53.576;9.978;2023-07-02T10:57:05;8.03;;;4.10;;
7160;SDS011;3622;53.576;9.978;2023-07-02T10:59:31;13.93;;;4.80;;
7160;SDS011;3622;53.576;9.978;2023-07-02T11:01:57;43.97;;;19.10;;
7160;SDS011;3622;53.576;9.978;2023-07-02T11:04:27;14.17;;;5.10;;
7160;SDS011;3622;53.576;9.978;2023-07-02T11:06:53;13.20;;;5.40;;
7160;SDS011;3622;53.576;9.978;2023-07-02T11:09:19;14.07;;;4.37;;
7160;SDS011;3622;53.576;9.978;2023-07-02T11:11:55;13.03;;;4.80;;
7160;SDS011;3622;53.576;9.978;2023-07-02T11:14:28;11.90;;;4.20;;
7160;SDS011;3622;53.576;9.978;2023-07-02T11:16:54;13.60;;;4.03;;
7160;SDS011;3622;53.576;9.978;2023-07-02T11:19:20;9.67;;;3.80;;
7160;SDS011;3622;53.576;9.978;2023-07-02T11:21:53;14.47;;;4.30;;
7160;SDS011;3622;53.576;9.978;2023-07-02T11:24:26;7.37;;;3.40;;
7160;SDS011;3622;53.576;9.978;2023-07-02T11:26:53;11.37;;;3.60;;
7160;SDS011;3622;53.576;9.978;2023-07-02T11:29:19;9.43;;;4.00;;
7160;SDS011;3622;53.576;9.978;2023-07-02T11:31:45;11.17;;;4.10;;
7160;SDS011;3622;53.576;9.978;2023-07-02T11:34:12;13.17;;;3.87;;
7160;SDS011;3622;53.576;9.978;2023-07-02T11:36:38;9.40;;;3.63;;
7160;SDS011;3622;53.576;9.978;2023-07-02T11:39:04;9.07;;;3.57;;
7160;SDS011;3622;53.576;9.978;2023-07-02T11:41:39;6.20;;;3.20;;
7160;SDS011;3622;53.576;9.978;2023-07-02T11:44:06;19.20;;;3.87;;
7160;SDS011;3622;53.576;9.978;2023-07-02T11:46:32;9.47;;;3.30;;
7160;SDS011;3622;53.576;9.978;2023-07-02T11:48:59;16.13;;;3.77;;
7160;SDS011;3622;53.576;9.978;2023-07-02T11:51:26;7.70;;;2.80;;
7160;SDS011;3622;53.576;9.978;2023-07-02T11:53:52;14.17;;;4.23;;
7160;SDS011;3622;53.576;9.978;2023-07-02T11:56:18;9.77;;;3.00;;
7160;SDS011;3622;53.576;9.978;2023-07-02T11:58:44;8.73;;;2.53;;
7160;SDS011;3622;53.576;9.978;2023-07-02T12:01:09;14.50;;;3.97;;
7160;SDS011;3622;53.576;9.978;2023-07-02T12:03:35;9.87;;;2.80;;
7160;SDS011;3622;53.576;9.978;2023-07-02T12:06:01;13.00;;;3.93;;
7160;SDS011;3622;53.576;9.978;2023-07-02T12:08:27;6.97;;;2.60;;
7160;SDS011;3622;53.576;9.978;2023-07-02T12:10:53;7.93;;;3.07;;
7160;SDS011;3622;53.576;9.978;2023-07-02T12:13:19;9.80;;;3.37;;
7160;SDS011;3622;53.576;9.978;2023-07-02T12:15:48;14.63;;;3.77;;
7160;SDS011;3622;53.576;9.978;2023-07-02T12:18:16;8.43;;;3.20;;
7160;SDS011;3622;53.576;9.978;2023-07-02T12:20:42;9.17;;;3.40;;
7160;SDS011;3622;53.576;9.978;2023-07-02T12:23:08;13.37;;;3.83;;
7160;SDS011;3622;53.576;9.978;2023-07-02T12:25:35;36.57;;;6.30;;
7160;SDS011;3622;53.576;9.978;2023-07-02T12:28:02;12.00;;;3.43;;
7160;SDS011;3622;53.576;9.978;2023-07-02T12:30:28;7.13;;;3.13;;
7160;SDS011;3622;53.576;9.978;2023-07-02T12:32:54;13.13;;;3.30;;
7160;SDS011;3622;53.576;9.978;2023-07-02T12:35:20;21.70;;;3.40;;
7160;SDS011;3622;53.576;9.978;2023-07-02T12:37:47;6.97;;;3.03;;
7160;SDS011;3622;53.576;9.978;2023-07-02T12:40:13;8.63;;;3.63;;
7160;SDS011;3622;53.576;9.978;2023-07-02T12:42:40;5.83;;;2.87;;
7160;SDS011;3622;53.576;9.978;2023-07-02T12:45:07;8.63;;;3.13;;
7160;SDS011;3622;53.576;9.978;2023-07-02T12:47:33;5.83;;;3.03;;
7160;SDS011;3622;53.576;9.978;2023-07-02T12:49:59;6.90;;;3.00;;
7160;SDS011;3622;53.576;9.978;2023-07-02T12:52:25;8.63;;;2.90;;
7160;SDS011;3622;53.576;9.978;2023-07-02T12:54:51;7.57;;;3.20;;
7160;SDS011;3622;53.576;9.978;2023-07-02T12:57:17;13.93;;;3.47;;
7160;SDS011;3622;53.576;9.978;2023-07-02T12:59:43;9.47;;;3.40;;
7160;SDS011;3622;53.576;9.978;2023-07-02T13:02:09;12.30;;;3.80;;
7160;SDS011;3622;53.576;9.978;2023-07-02T13:04:36;18.87;;;3.93;;
7160;SDS011;3622;53.576;9.978;2023-07-02T13:07:02;15.90;;;4.57;;
7160;SDS011;3622;53.576;9.978;2023-07-02T13:09:28;14.77;;;4.33;;
7160;SDS011;3622;53.576;9.978;2023-07-02T13:11:54;13.63;;;3.57;;
7160;SDS011;3622;53.576;9.978;2023-07-02T13:14:20;14.37;;;3.60;;
7160;SDS011;3622;53.576;9.978;2023-07-02T13:16:46;21.30;;;4.77;;
7160;SDS011;3622;53.576;9.978;2023-07-02T13:19:12;17.30;;;4.07;;
7160;SDS011;3622;53.576;9.978;2023-07-02T13:21:38;14.80;;;3.47;;
7160;SDS011;3622;53.576;9.978;2023-07-02T13:24:04;13.43;;;3.10;;
7160;SDS011;3622;53.576;9.978;2023-07-02T13:26:30;10.20;;;3.13;;
7160;SDS011;3622;53.576;9.978;2023-07-02T13:28:56;12.20;;;3.37;;
7160;SDS011;3622;53.576;9.978;2023-07-02T13:31:22;28.47;;;6.33;;
7160;SDS011;3622;53.576;9.978;2023-07-02T13:33:48;18.20;;;3.37;;
7160;SDS011;3622;53.576;9.978;2023-07-02T13:36:15;14.60;;;3.50;;
7160;SDS011;3622;53.576;9.978;2023-07-02T13:38:41;5.53;;;2.20;;
7160;SDS011;3622;53.576;9.978;2023-07-02T13:41:07;10.67;;;3.23;;
7160;SDS011;3622;53.576;9.978;2023-07-02T13:43:34;16.43;;;3.47;;
7160;SDS011;3622;53.576;9.978;2023-07-02T13:46:00;15.27;;;4.47;;
7160;SDS011;3622;53.576;9.978;2023-07-02T13:48:26;15.17;;;3.87;;
7160;SDS011;3622;53.576;9.978;2023-07-02T13:50:52;8.13;;;2.83;;
7160;SDS011;3622;53.576;9.978;2023-07-02T13:53:18;14.37;;;3.70;;
7160;SDS011;3622;53.576;9.978;2023-07-02T13:55:45;12.23;;;3.10;;
7160;SDS011;3622;53.576;9.978;2023-07-02T13:58:11;12.17;;;3.67;;
7160;SDS011;3622;53.576;9.978;2023-07-02T14:00:37;12.80;;;3.50;;
7160;SDS011;3622;53.576;9.978;2023-07-02T14:03:03;11.93;;;2.90;;
7160;SDS011;3622;53.576;9.978;2023-07-02T14:05:29;27.63;;;5.17;;
7160;SDS011;3622;53.576;9.978;2023-07-02T14:07:55;13.37;;;4.47;;
7160;SDS011;3622;53.576;9.978;2023-07-02T14:10:21;12.50;;;3.70;;
7160;SDS011;3622;53.576;9.978;2023-07-02T14:12:47;16.80;;;3.80;;
7160;SDS011;3622;53.576;9.978;2023-07-02T14:15:13;16.47;;;4.13;;
7160;SDS011;3622;53.576;9.978;2023-07-02T14:17:39;13.63;;;3.03;;
7160;SDS011;3622;53.576;9.978;2023-07-02T14:20:06;19.47;;;4.80;;
7160;SDS011;3622;53.576;9.978;2023-07-02T14:22:32;11.37;;;3.10;;
7160;SDS011;3622;53.576;9.978;2023-07-02T14:24:58;12.07;;;3.77;;
7160;SDS011;3622;53.576;9.978;2023-07-02T14:27:24;9.20;;;3.20;;
7160;SDS011;3622;53.576;9.978;2023-07-02T14:29:50;10.70;;;3.77;;
7160;SDS011;3622;53.576;9.978;2023-07-02T14:32:16;10.17;;;3.40;;
7160;SDS011;3622;53.576;9.978;2023-07-02T14:34:42;12.27;;;3.80;;
7160;SDS011;3622;53.576;9.978;2023-07-02T14:37:08;15.47;;;4.23;;
7160;SDS011;3622;53.576;9.978;2023-07-02T14:39:36;12.67;;;4.80;;
7160;SDS011;3622;53.576;9.978;2023-07-02T14:42:02;16.20;;;3.43;;
7160;SDS011;3622;53.576;9.978;2023-07-02T14:44:28;15.70;;;3.30;;
7160;SDS011;3622;53.576;9.978;2023-07-02T14:46:54;14.47;;;4.00;;
7160;SDS011;3622;53.576;9.978;2023-07-02T14:49:20;13.43;;;4.37;;
7160;SDS011;3622;53.576;9.978;2023-07-02T14:51:46;14.80;;;4.00;;
7160;SDS011;3622;53.576;9.978;2023-07-02T14:54:12;16.80;;;3.53;;
7160;SDS011;3622;53.576;9.978;2023-07-02T14:56:38;22.23;;;5.10;;